Time;durP1;ratioP1;P1;durP2;ratioP2;P2;SDS_P1;SDS_P2;PMS_P1;PMS_P2;Temp;Humidity;BMP_temperature;BMP_pressure;BME280_temperature;BME280_humidity;BME280_pressure;Samples;Min_cycle;Max_cycle;Signal;HPM_P1;HPM_P2
2023/07/28 00:00:38;;;;;;;;;7.00;7.00;;;;;15.63;89.00;99269.00;6353182;20;3448308;-51
2023/07/28 00:03:09;;;;;;;;;5.14;5.14;;;;;15.57;88.76;99270.41;6348003;20;3439968;-50
2023/07/28 00:05:37;;;;;;;;;5.00;5.00;;;;;15.57;89.97;99270.41;6312699;20;2733638;-50
2023/07/28 00:08:04;;;;;;;;;7.00;6.00;;;;;15.72;88.43;99278.22;6280325;20;2748223;-51
2023/07/28 00:10:31;;;;;;;;;4.00;4.00;;;;;15.81;89.19;99274.66;6280413;20;2735768;-51
2023/07/28 00:13:02;;;;;;;;;4.80;4.80;;;;;15.62;88.67;99277.28;6317181;20;2482599;-50
2023/07/28 00:15:29;;;;;;;;;6.00;6.00;;;;;15.82;88.02;99281.78;6309429;20;2729454;-51
2023/07/28 00:18:02;;;;;;;;;7.00;5.00;;;;;15.83;88.37;99274.53;6322349;20;2562800;-54
2023/07/28 00:20:33;;;;;;;;;5.29;5.29;;;;;15.81;88.32;99269.25;6354475;20;3447196;-50
2023/07/28 00:23:00;;;;;;;;;6.00;6.00;;;;;15.82;89.24;99267.41;6309210;20;2738871;-51
2023/07/28 00:25:29;;;;;;;;;7.60;7.60;;;;;15.85;89.43;99273.41;6304270;20;2735705;-49
2023/07/28 00:28:00;;;;;;;;;7.29;7.29;;;;;15.76;89.26;99269.66;6351317;20;3455483;-49
2023/07/28 00:30:27;;;;;;;;;6.50;6.00;;;;;15.91;87.98;99263.88;6311807;20;2746097;-51
2023/07/28 00:32:56;;;;;;;;;5.20;5.20;;;;;16.00;87.07;99265.72;6303738;20;2732626;-52
2023/07/28 00:35:27;;;;;;;;;7.57;7.57;;;;;15.78;87.56;99267.69;6353616;20;3447640;-51
2023/07/28 00:37:56;;;;;;;;;8.40;7.00;;;;;15.86;87.36;99268.84;6332011;20;2727367;-49
2023/07/28 00:40:23;;;;;;;;;7.50;7.50;;;;;15.67;88.41;99275.03;6307135;20;2741955;-49
2023/07/28 00:42:50;;;;;;;;;8.50;7.00;;;;;15.68;88.10;99265.91;6280123;20;2739987;-53
2023/07/28 00:45:20;;;;;;;;;10.40;8.60;;;;;15.62;88.43;99261.06;6304190;20;2773263;-57
2023/07/28 00:47:50;;;;;;;;;8.60;8.00;;;;;15.61;87.76;99259.31;6299940;20;2749337;-52
2023/07/28 00:50:18;;;;;;;;;7.50;7.50;;;;;15.57;88.73;99262.31;6306495;20;2742055;-51
2023/07/28 00:52:47;;;;;;;;;9.00;9.00;;;;;15.46;88.88;99251.59;6302179;20;2746119;-52
2023/07/28 00:55:14;;;;;;;;;8.00;8.00;;;;;15.34;89.56;99253.53;6315776;20;2740986;-50
2023/07/28 00:57:41;;;;;;;;;10.00;9.00;;;;;15.25;90.45;99251.63;6283301;20;2756970;-51
2023/07/28 01:00:11;;;;;;;;;8.40;8.00;;;;;15.28;90.16;99247.81;6300933;20;2738210;-53
2023/07/28 01:02:40;;;;;;;;;8.00;8.00;;;;;15.42;90.06;99254.69;6305059;20;2744087;-54
2023/07/28 01:05:08;;;;;;;;;15.00;12.33;;;;;15.50;88.62;99252.16;6303290;20;3515874;-54
2023/07/28 01:07:55;;;;;;;;;36.33;33.67;;;;;15.72;88.17;99243.88;6306627;20;3608685;-52
2023/07/28 01:10:31;;;;;;;;;13.00;13.00;;;;;15.64;88.38;99245.50;6274362;20;3520235;-54
2023/07/28 01:13:00;;;;;;;;;11.00;8.00;;;;;15.66;87.39;99249.78;6328550;20;2756991;-51
2023/07/28 01:15:27;;;;;;;;;7.50;7.50;;;;;15.83;87.68;99247.47;6278248;20;2751302;-53
2023/07/28 01:17:55;;;;;;;;;7.50;7.50;;;;;15.73;87.16;99236.59;6273602;20;2747305;-52
2023/07/28 01:20:29;;;;;;;;;11.50;9.00;;;;;15.88;87.41;99245.22;6280063;20;2763798;-50
2023/07/28 01:23:13;;;;;;;;;8.86;8.00;;;;;15.60;88.35;99242.22;6316129;20;3461738;-51
2023/07/28 01:26:11;;;;;;;;;8.20;8.20;;;;;15.72;87.49;99240.31;6331198;20;2756530;-53
2023/07/28 01:28:42;;;;;;;;;7.80;7.80;;;;;15.52;88.30;99240.22;6299833;20;2735705;-51
2023/07/28 01:31:09;;;;;;;;;8.50;7.00;;;;;15.58;88.39;99234.25;6301661;20;2747283;-53
2023/07/28 01:33:37;;;;;;;;;8.00;6.67;;;;;15.81;87.41;99234.06;6274785;20;2746088;-51
2023/07/28 01:36:06;;;;;;;;;9.60;8.20;;;;;15.77;87.46;99243.44;6331582;20;2763231;-48
2023/07/28 01:38:35;;;;;;;;;8.20;6.60;;;;;15.63;87.05;99233.84;6297556;20;2737863;-50
2023/07/28 01:41:02;;;;;;;;;7.50;6.50;;;;;15.69;87.40;99235.16;6314663;20;2744131;-54
2023/07/28 01:43:30;;;;;;;;;10.50;9.00;;;;;15.57;87.85;99224.41;6274176;20;2765963;-54
2023/07/28 01:45:57;;;;;;;;;9.50;8.00;;;;;15.49;88.24;99229.66;6278899;20;2764828;-49
2023/07/28 01:48:27;;;;;;;;;11.80;8.80;;;;;15.56;88.01;99230.84;6301399;20;2784669;-50
2023/07/28 01:50:54;;;;;;;;;8.00;8.00;;;;;15.54;88.56;99227.41;6278355;20;2754507;-49
2023/07/28 01:53:21;;;;;;;;;7.00;7.00;;;;;15.65;88.76;99228.28;6279699;20;2744034;-52
2023/07/28 01:55:50;;;;;;;;;10.00;8.60;;;;;15.65;88.30;99228.28;6300975;20;2772205;-52
2023/07/28 01:58:19;;;;;;;;;9.40;7.00;;;;;15.69;88.34;99230.63;6299671;20;2741696;-52
2023/07/28 02:00:48;;;;;;;;;9.20;7.20;;;;;15.65;88.28;99218.31;6330938;20;2749778;-53
2023/07/28 02:03:19;;;;;;;;;8.33;8.33;;;;;15.69;88.17;99221.63;6356505;20;1793041;-52
2023/07/28 02:05:48;;;;;;;;;7.00;7.00;;;;;15.55;88.96;99225.56;6337720;20;2730523;-51
2023/07/28 02:08:19;;;;;;;;;10.86;7.57;;;;;15.81;88.81;99223.22;6356825;20;3489957;-51
2023/07/28 02:10:46;;;;;;;;;8.00;8.00;;;;;15.88;88.84;99221.69;6313568;20;2739926;-52
2023/07/28 02:13:14;;;;;;;;;8.00;7.50;;;;;15.87;89.22;99217.25;6280768;20;2743532;-54
2023/07/28 02:15:41;;;;;;;;;9.00;9.00;;;;;15.98;88.92;99219.84;6284341;20;2748194;-50
2023/07/28 02:18:10;;;;;;;;;9.40;7.20;;;;;15.82;88.97;99203.28;6307015;20;2744167;-52
2023/07/28 02:20:38;;;;;;;;;10.50;7.00;;;;;15.88;88.90;99213.56;6309661;20;2766975;-52
2023/07/28 02:23:06;;;;;;;;;8.00;7.00;;;;;16.11;88.04;99224.13;6281916;20;2742081;-48
2023/07/28 02:25:35;;;;;;;;;8.40;8.00;;;;;16.18;86.93;99222.56;6306485;20;2748685;-52
2023/07/28 02:28:02;;;;;;;;;10.00;9.00;;;;;16.24;86.54;99224.72;6282931;20;2764960;-48
2023/07/28 02:30:30;;;;;;;;;10.00;10.00;;;;;16.24;86.60;99219.28;6293338;20;2789877;-50
2023/07/28 02:32:59;;;;;;;;;9.20;8.20;;;;;16.22;86.68;99226.72;6305383;20;2758613;-53
2023/07/28 02:35:28;;;;;;;;;9.00;7.80;;;;;16.33;86.67;99218.44;6334155;20;2762804;-53
2023/07/28 02:37:58;;;;;;;;;10.80;8.80;;;;;16.23;86.61;99217.59;6301846;20;2766929;-49
2023/07/28 02:40:26;;;;;;;;;12.00;9.00;;;;;16.41;86.06;99221.28;6279546;20;2766060;-53
2023/07/28 02:42:56;;;;;;;;;7.00;6.60;;;;;16.44;85.33;99222.88;6336602;20;2744079;-53
2023/07/28 02:45:24;;;;;;;;;10.00;8.67;;;;;16.38;85.71;99232.44;6309128;20;2754523;-54
2023/07/28 02:47:53;;;;;;;;;13.00;10.33;;;;;16.54;84.99;99225.59;6308758;20;2782685;-50
2023/07/28 02:50:23;;;;;;;;;10.60;9.00;;;;;16.54;85.27;99226.44;6333588;20;2775301;-52
2023/07/28 02:52:52;;;;;;;;;9.80;9.20;;;;;16.69;84.32;99229.53;6303742;20;2776317;-52
2023/07/28 02:55:23;;;;;;;;;7.57;7.57;;;;;16.69;84.07;99232.25;6324357;20;3451273;-49
2023/07/28 02:57:50;;;;;;;;;11.00;10.00;;;;;16.80;83.51;99224.00;6311887;20;2779458;-56
2023/07/28 03:00:17;;;;;;;;;9.00;9.00;;;;;16.70;84.21;99225.84;6280208;20;2757552;-55
2023/07/28 03:02:46;;;;;;;;;10.60;6.40;;;;;16.84;82.66;99225.41;6303284;20;2760743;-53
2023/07/28 03:05:14;;;;;;;;;13.00;10.50;;;;;16.89;81.93;99225.81;6279464;20;2794108;-55
2023/07/28 03:07:41;;;;;;;;;13.00;9.00;;;;;16.86;82.36;99215.28;6279259;20;2771304;-56
2023/07/28 03:10:09;;;;;;;;;16.00;11.00;;;;;16.95;82.04;99218.09;6285058;20;2800384;-53
2023/07/28 03:12:38;;;;;;;;;15.00;11.40;;;;;16.82;82.16;99211.13;6300152;20;2800356;-50
2023/07/28 03:15:07;;;;;;;;;9.00;8.00;;;;;16.91;81.71;99211.28;6279599;20;2744077;-54
2023/07/28 03:17:35;;;;;;;;;8.00;7.00;;;;;16.87;81.38;99189.84;6308910;20;2742137;-47
2023/07/28 03:20:02;;;;;;;;;8.00;8.00;;;;;16.93;80.37;99190.28;6280951;20;2748210;-51
2023/07/28 03:22:31;;;;;;;;;8.40;7.80;;;;;16.96;80.15;99190.00;6305547;20;2737871;-52
2023/07/28 03:25:03;;;;;;;;;8.00;6.57;;;;;17.06;79.49;99191.69;6353994;20;3456540;-52
2023/07/28 03:27:33;;;;;;;;;6.29;6.29;;;;;17.05;79.23;99199.94;6352233;20;3461790;-51
2023/07/28 03:30:06;;;;;;;;;8.60;8.60;;;;;17.00;79.50;99197.66;6337623;20;2741498;-52
2023/07/28 03:32:37;;;;;;;;;6.40;6.40;;;;;17.00;79.07;99194.97;6335695;20;2737917;-53
2023/07/28 03:35:08;;;;;;;;;6.43;6.43;;;;;17.13;78.24;99193.78;6352470;20;3456486;-47
2023/07/28 03:37:37;;;;;;;;;7.00;7.00;;;;;17.21;78.10;99200.16;6331584;20;2736222;-50
2023/07/28 03:40:07;;;;;;;;;6.20;6.20;;;;;17.22;77.62;99199.19;6337269;20;2741077;-51
2023/07/28 03:42:35;;;;;;;;;8.00;5.50;;;;;17.32;77.50;99199.13;6312825;20;2739986;-48
2023/07/28 03:45:04;;;;;;;;;7.40;7.00;;;;;17.30;77.84;99202.00;6302149;20;2730500;-50
2023/07/28 03:47:32;;;;;;;;;7.00;7.00;;;;;17.30;76.97;99196.56;6307459;20;2748345;-51
2023/07/28 03:49:59;;;;;;;;;5.50;5.50;;;;;17.32;76.87;99200.00;6282395;20;2738825;-49
2023/07/28 03:52:28;;;;;;;;;7.60;6.00;;;;;17.42;76.89;99193.66;6304986;20;2743060;-55
2023/07/28 03:54:57;;;;;;;;;6.00;6.00;;;;;17.38;76.93;99192.25;6334760;20;2740003;-49
2023/07/28 03:57:25;;;;;;;;;7.00;5.50;;;;;17.55;76.62;99195.00;6310075;20;2745209;-50
2023/07/28 03:59:52;;;;;;;;;6.00;4.50;;;;;17.38;76.83;99187.69;6282834;20;2739840;-54
2023/07/28 04:02:19;;;;;;;;;6.00;4.00;;;;;17.32;77.27;99194.56;6280307;20;2746242;-51
2023/07/28 04:04:46;;;;;;;;;5.50;5.50;;;;;17.34;77.83;99195.25;6280052;20;2736768;-52
2023/07/28 04:07:14;;;;;;;;;7.00;6.00;;;;;17.50;77.16;99200.03;6283491;20;2744037;-49
2023/07/28 04:09:43;;;;;;;;;4.20;4.20;;;;;17.50;77.17;99194.59;6304165;20;2744103;-50
2023/07/28 04:12:12;;;;;;;;;6.20;5.00;;;;;17.62;76.91;99195.28;6335681;20;2737794;-49
2023/07/28 04:14:40;;;;;;;;;5.50;4.00;;;;;17.69;76.80;99204.53;6309918;20;2754465;-48
2023/07/28 04:17:11;;;;;;;;;4.40;4.40;;;;;17.61;76.65;99198.97;6305253;20;2750302;-53
2023/07/28 04:19:40;;;;;;;;;4.20;4.20;;;;;17.75;76.38;99192.19;6332573;20;2752389;-51
2023/07/28 04:22:07;;;;;;;;;5.50;4.00;;;;;17.69;76.47;99200.94;6280833;20;2746136;-49
2023/07/28 04:24:35;;;;;;;;;4.00;3.00;;;;;17.65;76.66;99199.53;6279791;20;2746217;-47
2023/07/28 04:27:02;;;;;;;;;6.50;4.00;;;;;17.75;76.21;99206.63;6283536;20;2744051;-53
2023/07/28 04:29:31;;;;;;;;;6.60;5.00;;;;;17.75;75.88;99206.63;6304314;20;2738202;-53
2023/07/28 04:32:00;;;;;;;;;4.40;4.40;;;;;17.81;75.45;99212.50;6334897;20;2749325;-47
2023/07/28 04:34:28;;;;;;;;;3.00;3.00;;;;;17.69;76.09;99211.78;6311784;20;2733709;-51
2023/07/28 04:36:55;;;;;;;;;2.50;2.50;;;;;17.84;75.16;99214.91;6281746;20;2745118;-48
2023/07/28 04:39:22;;;;;;;;;5.00;5.00;;;;;17.98;74.61;99206.22;6284270;20;2468170;-48
2023/07/28 04:41:49;;;;;;;;;6.00;6.00;;;;;18.14;73.36;99206.41;6282635;20;2737926;-52
2023/07/28 04:44:18;;;;;;;;;5.50;5.50;;;;;18.10;73.48;99199.56;6278790;20;2748327;-50
2023/07/28 04:46:47;;;;;;;;;7.00;6.00;;;;;18.12;73.54;99213.84;6282079;20;2741967;-49
2023/07/28 04:49:16;;;;;;;;;5.00;5.00;;;;;18.09;73.47;99211.44;6305158;20;2745503;-47
2023/07/28 04:51:45;;;;;;;;;5.60;5.00;;;;;18.23;74.04;99211.91;6334038;20;2748274;-49
2023/07/28 04:54:14;;;;;;;;;5.60;4.60;;;;;18.24;73.61;99210.91;6331641;20;2748218;-50
2023/07/28 04:56:41;;;;;;;;;6.00;5.00;;;;;18.32;73.87;99213.69;6310730;20;2748180;-51
2023/07/28 04:59:09;;;;;;;;;4.50;4.50;;;;;18.36;73.02;99215.09;6277151;20;2743028;-52
2023/07/28 05:01:36;;;;;;;;;5.00;5.00;;;;;18.36;73.39;99212.38;6277925;20;2744117;-48
2023/07/28 05:04:04;;;;;;;;;6.50;6.50;;;;;18.37;72.78;99208.63;6276219;20;2748213;-53
2023/07/28 05:06:31;;;;;;;;;6.00;6.00;;;;;18.39;72.69;99201.19;6281074;20;2744065;-51
2023/07/28 05:09:00;;;;;;;;;6.20;6.20;;;;;18.41;73.26;99194.59;6300517;20;2738834;-53
2023/07/28 05:11:29;;;;;;;;;5.20;5.20;;;;;18.43;72.63;99194.41;6332863;20;2740969;-50
2023/07/28 05:13:58;;;;;;;;;6.80;6.00;;;;;18.50;73.58;99184.63;6330977;20;2740907;-49
2023/07/28 05:16:27;;;;;;;;;8.75;6.50;;;;;18.46;73.24;99183.25;6331478;20;2617004;-48
2023/07/28 05:18:56;;;;;;;;;5.60;4.80;;;;;18.60;72.65;99192.69;6328766;20;2743037;-51
2023/07/28 05:21:25;;;;;;;;;6.20;6.20;;;;;18.56;72.49;99186.72;6333321;20;2746160;-52
2023/07/28 05:23:54;;;;;;;;;4.40;4.40;;;;;18.64;72.83;99192.22;6331123;20;2748262;-49
2023/07/28 05:26:23;;;;;;;;;7.20;5.80;;;;;18.61;72.76;99187.09;6298847;20;2733721;-50
2023/07/28 05:28:51;;;;;;;;;4.50;4.00;;;;;18.49;73.84;99195.69;6305499;20;2741988;-52
2023/07/28 05:31:18;;;;;;;;;5.00;5.00;;;;;18.72;73.59;99193.28;6281900;20;2754418;-48
2023/07/28 05:33:45;;;;;;;;;4.50;4.50;;;;;18.58;73.42;99203.72;6281501;20;2743048;-51
2023/07/28 05:36:13;;;;;;;;;5.50;4.00;;;;;18.50;74.40;99214.53;6285070;20;2744077;-52
2023/07/28 05:38:40;;;;;;;;;5.00;5.00;;;;;18.57;73.86;99222.94;6285258;20;2748203;-53
2023/07/28 05:41:09;;;;;;;;;4.60;4.60;;;;;18.85;72.78;99226.38;6310015;20;2746107;-49
2023/07/28 05:43:36;;;;;;;;;6.50;3.00;;;;;19.16;71.56;99218.59;6312616;20;2746157;-50
2023/07/28 05:46:03;;;;;;;;;8.00;5.50;;;;;19.52;70.27;99221.19;6286878;20;2735691;-51
2023/07/28 05:48:31;;;;;;;;;6.00;4.67;;;;;19.65;69.11;99220.75;6288116;20;2738825;-48
2023/07/28 05:51:00;;;;;;;;;6.67;3.67;;;;;19.51;69.68;99209.44;6307317;20;2750290;-49
2023/07/28 05:53:28;;;;;;;;;4.00;4.00;;;;;19.60;70.00;99213.06;6313540;20;2739902;-52
2023/07/28 05:55:57;;;;;;;;;3.80;3.80;;;;;19.56;70.96;99224.44;6336570;20;2750359;-51
2023/07/28 05:58:25;;;;;;;;;3.00;3.00;;;;;19.64;70.23;99229.91;6315543;20;2744048;-50
2023/07/28 06:00:54;;;;;;;;;4.00;4.00;;;;;19.76;70.24;99223.19;6337569;20;2753433;-49
2023/07/28 06:03:23;;;;;;;;;5.40;4.00;;;;;19.84;69.16;99217.75;6337859;20;2744025;-51
2023/07/28 06:05:52;;;;;;;;;3.00;3.00;;;;;19.92;68.01;99215.06;6336254;20;2743086;-55
2023/07/28 06:08:20;;;;;;;;;4.00;4.00;;;;;20.12;68.14;99217.50;6318452;20;2747187;-53
2023/07/28 06:10:49;;;;;;;;;4.00;4.00;;;;;20.04;68.10;99217.50;6341175;20;2737797;-51
2023/07/28 06:13:17;;;;;;;;;2.67;2.67;;;;;19.93;68.77;99235.84;6319511;20;2738945;-47
2023/07/28 06:15:47;;;;;;;;;5.00;4.00;;;;;20.17;68.21;99239.66;6319023;20;2749343;-51
2023/07/28 06:18:16;;;;;;;;;4.60;4.60;;;;;20.07;67.83;99247.13;6341975;20;2748241;-48
2023/07/28 06:20:45;;;;;;;;;4.60;2.60;;;;;20.07;67.90;99255.31;6345195;20;2752482;-49
2023/07/28 06:23:13;;;;;;;;;3.67;3.67;;;;;20.03;67.80;99256.66;6288274;20;2745076;-51
2023/07/28 06:25:45;;;;;;;;;5.20;5.20;;;;;19.99;67.02;99258.03;6340093;20;2741017;-49
2023/07/28 06:28:13;;;;;;;;;6.00;6.00;;;;;20.20;66.74;99254.84;6318710;20;2743002;-53
2023/07/28 06:30:42;;;;;;;;;4.80;4.00;;;;;20.58;66.61;99256.94;6341433;20;2741952;-51
2023/07/28 06:33:11;;;;;;;;;4.00;3.33;;;;;20.53;66.25;99250.28;6317618;20;2756613;-51
2023/07/28 06:35:39;;;;;;;;;1.00;1.00;;;;;20.40;66.48;99256.22;6320470;20;2724280;-51
2023/07/28 06:38:08;;;;;;;;;3.80;3.80;;;;;20.69;66.09;99258.50;6329135;20;2756634;-51
2023/07/28 06:40:37;;;;;;;;;8.20;5.00;;;;;20.75;65.85;99255.09;6305857;20;2743060;-49
2023/07/28 06:43:07;;;;;;;;;3.00;3.00;;;;;20.66;66.77;99249.81;6281683;20;2756567;-48
2023/07/28 06:45:36;;;;;;;;;4.40;3.40;;;;;21.73;63.66;99254.09;6335395;20;2746592;-52
2023/07/28 06:48:05;;;;;;;;;4.60;4.60;;;;;21.87;61.72;99256.06;6302657;20;2743054;-51
2023/07/28 06:50:34;;;;;;;;;3.80;3.00;;;;;22.05;61.51;99258.56;6304366;20;2734653;-50
2023/07/28 06:53:03;;;;;;;;;5.20;4.20;;;;;21.95;61.92;99252.44;6335423;20;2750707;-51
2023/07/28 06:55:34;;;;;;;;;6.57;5.29;;;;;22.36;61.34;99260.47;6323667;20;3456534;-50
2023/07/28 06:58:03;;;;;;;;;3.00;3.00;;;;;22.55;60.44;99259.97;6334124;20;2030589;-52
2023/07/28 07:00:33;;;;;;;;;2.40;2.40;;;;;21.95;61.99;99251.59;6337758;20;2757017;-53
2023/07/28 07:03:02;;;;;;;;;5.00;4.00;;;;;22.02;61.58;99253.44;6302220;20;2750421;-52
2023/07/28 07:05:32;;;;;;;;;3.40;3.40;;;;;22.68;59.68;99258.53;6306334;20;2746142;-51
2023/07/28 07:08:01;;;;;;;;;3.40;3.00;;;;;23.27;57.54;99260.59;6332852;20;2752369;-53
2023/07/28 07:10:30;;;;;;;;;3.00;1.40;;;;;23.04;57.34;99263.38;6301441;20;2737791;-51
2023/07/28 07:12:59;;;;;;;;;2.60;2.60;;;;;23.39;56.17;99262.69;6334990;20;2741952;-49
2023/07/28 07:15:27;;;;;;;;;2.67;2.67;;;;;23.81;53.50;99261.22;6308503;20;2748802;-53
2023/07/28 07:17:56;;;;;;;;;2.60;2.60;;;;;24.46;52.64;99270.50;6335468;20;2756632;-53
2023/07/28 07:20:26;;;;;;;;;1.00;1.00;;;;;25.18;51.81;99266.75;6299659;20;2733731;-51
2023/07/28 07:22:55;;;;;;;;;3.40;3.40;;;;;25.50;50.27;99258.09;6337845;20;2744047;-54
2023/07/28 07:25:26;;;;;;;;;1.40;1.40;;;;;25.29;50.00;99259.84;6300038;20;2741102;-50
2023/07/28 07:27:55;;;;;;;;;1.60;1.60;;;;;24.25;52.50;99252.06;6302303;20;2724275;-50
2023/07/28 07:30:24;;;;;;;;;2.40;2.40;;;;;23.67;52.37;99242.84;6336762;20;2731554;-55
2023/07/28 07:32:53;;;;;;;;;2.00;2.00;;;;;23.63;53.05;99257.97;6336223;20;1915993;-53
2023/07/28 07:35:22;;;;;;;;;3.00;3.00;;;;;23.31;52.82;99242.75;6335583;20;2741970;-50
2023/07/28 07:37:51;;;;;;;;;4.80;1.60;;;;;23.26;53.56;99229.63;6332860;20;2730532;-53
2023/07/28 07:40:20;;;;;;;;;2.40;2.40;;;;;23.57;52.76;99231.34;6334250;20;2731584;-52
2023/07/28 07:42:49;;;;;;;;;4.00;2.00;;;;;23.50;53.11;99220.25;6337416;20;2740020;-53
2023/07/28 07:45:17;;;;;;;;;2.67;2.67;;;;;23.00;54.11;99219.94;6310829;20;2744033;-51
2023/07/28 07:47:46;;;;;;;;;4.40;3.80;;;;;23.33;52.88;99227.84;6333370;20;2741950;-52
2023/07/28 07:50:16;;;;;;;;;2.20;2.20;;;;;23.43;53.49;99228.41;6335015;20;2742019;-53
2023/07/28 07:52:45;;;;;;;;;4.00;4.00;;;;;24.12;51.29;99237.31;6334078;20;2750384;-54
2023/07/28 07:55:14;;;;;;;;;4.40;3.40;;;;;24.34;49.18;99239.06;6303121;20;2752368;-56
2023/07/28 07:57:43;;;;;;;;;2.40;2.40;;;;;24.99;48.32;99231.69;6300423;20;2738817;-50
2023/07/28 08:00:13;;;;;;;;;2.80;2.80;;;;;24.82;48.78;99231.13;6329524;20;2739910;-53
2023/07/28 08:02:42;;;;;;;;;3.80;3.60;;;;;24.01;50.18;99227.69;6300194;20;2742089;-51
2023/07/28 08:05:14;;;;;;;;;2.20;1.00;;;;;23.82;50.95;99230.00;6303540;20;2743095;-56
2023/07/28 08:07:44;;;;;;;;;2.40;2.40;;;;;23.81;50.02;99236.53;6331658;20;2738820;-52
2023/07/28 08:10:13;;;;;;;;;2.00;2.00;;;;;23.67;51.05;99226.38;6333524;20;2748203;-55
2023/07/28 08:12:44;;;;;;;;;2.00;2.00;;;;;24.03;51.00;99215.50;6300830;20;2742985;-54
2023/07/28 08:15:13;;;;;;;;;3.40;3.40;;;;;23.95;50.50;99217.50;6299851;20;2747181;-51
2023/07/28 08:17:42;;;;;;;;;2.00;2.00;;;;;23.85;52.14;99218.66;6302230;20;2755556;-54
2023/07/28 08:20:12;;;;;;;;;2.00;2.00;;;;;23.88;51.97;99222.91;6303262;20;2739879;-52
2023/07/28 08:22:42;;;;;;;;;2.80;2.80;;;;;24.10;50.75;99234.78;6335373;20;2745079;-54
2023/07/28 08:25:11;;;;;;;;;3.00;3.00;;;;;24.15;50.85;99228.72;6331877;20;2756570;-50
2023/07/28 08:27:40;;;;;;;;;4.00;4.00;;;;;24.38;52.19;99218.44;6299014;20;2748240;-51
2023/07/28 08:30:10;;;;;;;;;4.00;2.20;;;;;23.79;51.68;99222.16;6298767;20;2747293;-52
2023/07/28 08:32:39;;;;;;;;;1.00;1.00;;;;;24.24;49.96;99227.56;6302503;20;2746146;-55
2023/07/28 08:35:08;;;;;;;;;3.00;2.00;;;;;24.01;49.34;99228.56;6301589;20;2735749;-52
2023/07/28 08:37:37;;;;;;;;;0.00;0.00;;;;;23.87;49.43;99223.94;6331370;20;2733690;-51
2023/07/28 08:40:08;;;;;;;;;3.00;3.00;;;;;24.16;51.19;99220.28;6329013;20;2752407;-52
2023/07/28 08:42:39;;;;;;;;;3.40;3.40;;;;;24.16;51.05;99223.03;6302497;20;2756567;-57
2023/07/28 08:45:09;;;;;;;;;2.20;2.20;;;;;24.26;50.58;99219.97;6301245;20;2733676;-51
2023/07/28 08:47:38;;;;;;;;;5.00;3.00;;;;;24.51;50.36;99224.09;6332672;20;2748241;-52
2023/07/28 08:50:07;;;;;;;;;3.60;3.60;;;;;24.71;50.36;99218.78;6301493;20;2756569;-53
2023/07/28 08:52:36;;;;;;;;;3.60;2.00;;;;;24.84;49.66;99212.56;6298920;20;2739929;-55
2023/07/28 08:55:06;;;;;;;;;4.00;2.00;;;;;24.67;50.15;99211.13;6334748;20;2746113;-56
2023/07/28 08:57:35;;;;;;;;;4.40;3.00;;;;;24.60;50.36;99202.84;6299458;20;2737913;-55
2023/07/28 09:00:13;;;;;;;;;3.40;2.60;;;;;25.04;49.83;99209.97;6300912;20;2750284;-58
2023/07/28 09:02:43;;;;;;;;;2.40;2.20;;;;;25.11;49.85;99208.09;6299344;20;2748303;-58
2023/07/28 09:05:23;;;;;;;;;4.20;2.60;;;;;25.29;49.43;99204.03;6299381;20;2752369;-56
2023/07/28 09:07:53;;;;;;;;;3.40;2.40;;;;;25.67;49.45;99200.88;6298791;20;2750415;-54
2023/07/28 09:10:22;;;;;;;;;2.40;2.40;;;;;25.69;48.88;99196.00;6298841;20;2737936;-59
2023/07/28 09:12:51;;;;;;;;;2.00;2.00;;;;;25.14;49.82;99193.13;6305677;20;2744101;-55
2023/07/28 09:15:20;;;;;;;;;2.00;2.00;;;;;25.18;49.48;99187.06;6304848;20;2733809;-54
2023/07/28 09:17:49;;;;;;;;;1.60;1.60;;;;;25.49;48.66;99193.16;6334725;20;2751448;-53
2023/07/28 09:20:19;;;;;;;;;4.80;3.00;;;;;26.37;47.66;99191.41;6306281;20;2752468;-54
2023/07/28 09:22:50;;;;;;;;;4.67;4.67;;;;;27.32;45.78;99194.84;6283127;20;2736739;-59
2023/07/28 09:25:19;;;;;;;;;7.00;5.00;;;;;27.38;46.26;99198.66;6313392;20;2741956;-60
2023/07/28 09:27:52;;;;;;;;;1.40;1.40;;;;;27.64;45.11;99191.38;6335165;20;2730596;-61
2023/07/28 09:30:23;;;;;;;;;3.00;3.00;;;;;27.90;44.88;99196.81;6336052;20;2747215;-61
2023/07/28 09:32:55;;;;;;;;;4.60;4.00;;;;;27.70;43.42;99180.31;6307454;20;2756634;-59
2023/07/28 09:35:24;;;;;;;;;3.00;2.00;;;;;27.84;43.68;99185.81;6307302;20;2756601;-59
2023/07/28 09:37:53;;;;;;;;;3.00;2.60;;;;;27.67;42.54;99175.22;6305620;20;2748323;-61
2023/07/28 09:40:22;;;;;;;;;3.00;2.00;;;;;27.53;42.71;99173.59;6281057;20;2739898;-60
2023/07/28 09:42:54;;;;;;;;;3.20;3.00;;;;;27.14;43.49;99169.81;6339087;20;2755494;-58
2023/07/28 09:45:25;;;;;;;;;2.40;2.40;;;;;27.78;43.07;99176.47;6304309;20;2734655;-60
2023/07/28 09:48:07;;;;;;;;;3.00;3.00;;;;;27.76;42.99;99184.97;6303505;20;2740935;-59
2023/07/28 09:50:40;;;;;;;;;2.00;2.00;;;;;28.17;42.62;99169.94;6306309;20;2733622;-60
2023/07/28 09:53:13;;;;;;;;;3.60;2.00;;;;;28.58;42.03;99171.38;6300221;20;2739902;-58
2023/07/28 09:55:42;;;;;;;;;2.50;2.50;;;;;28.17;42.67;99169.94;6286447;20;2636800;-59
2023/07/28 09:58:15;;;;;;;;;0.00;0.00;;;;;27.93;42.31;99173.47;6335198;20;2737906;-61
2023/07/28 10:00:43;;;;;;;;;2.33;2.33;;;;;28.27;42.56;99174.13;6280266;20;2755531;-59
2023/07/28 10:03:11;;;;;;;;;3.33;3.33;;;;;28.13;42.63;99163.16;6314324;20;2751423;-59
2023/07/28 10:05:41;;;;;;;;;3.00;2.40;;;;;28.31;44.07;99167.09;6333353;20;2741065;-60
2023/07/28 10:08:12;;;;;;;;;3.40;3.40;;;;;28.07;43.27;99163.19;6302137;20;2747198;-60
2023/07/28 10:10:41;;;;;;;;;3.60;3.00;;;;;28.53;42.45;99157.41;6300961;20;2750446;-59
2023/07/28 10:13:21;;;;;;;;;5.00;4.00;;;;;28.78;42.38;99164.84;6279662;20;2737955;-59
2023/07/28 10:15:51;;;;;;;;;5.20;4.00;;;;;28.05;43.19;99165.34;6335353;20;2739994;-60
2023/07/28 10:18:22;;;;;;;;;4.00;3.00;;;;;28.52;43.14;99158.47;6301252;20;2746169;-60
2023/07/28 10:20:51;;;;;;;;;4.40;4.40;;;;;28.31;43.07;99154.13;6308281;20;2749280;-59
2023/07/28 10:23:24;;;;;;;;;3.00;3.00;;;;;28.87;42.48;99152.44;6279971;20;2748272;-59
2023/07/28 10:26:07;;;;;;;;;3.67;3.67;;;;;28.59;42.67;99144.59;6314151;20;2739343;-61
2023/07/28 10:28:38;;;;;;;;;2.80;2.40;;;;;28.88;42.59;99160.53;6332191;20;2742536;-61
2023/07/28 10:31:14;;;;;;;;;2.20;2.20;;;;;28.77;42.26;99154.88;6307520;20;2730494;-59
2023/07/28 10:33:46;;;;;;;;;4.40;4.40;;;;;29.58;41.97;99166.84;6305236;20;2741979;-60
2023/07/28 10:36:21;;;;;;;;;5.20;3.40;;;;;28.69;42.43;99155.16;6303702;20;2744187;-60
2023/07/28 10:39:05;;;;;;;;;5.00;4.00;;;;;29.19;41.83;99141.31;6304706;20;2744174;-59
2023/07/28 10:41:35;;;;;;;;;2.33;2.33;;;;;29.15;41.45;99137.31;6281568;20;2753456;-58
2023/07/28 10:44:05;;;;;;;;;1.40;1.40;;;;;29.36;42.41;99150.72;6332298;20;2743026;-59
2023/07/28 10:46:37;;;;;;;;;3.00;3.00;;;;;28.86;43.17;99156.28;6303275;20;2736736;-59
2023/07/28 10:49:07;;;;;;;;;4.67;4.67;;;;;28.56;42.36;99140.38;6283295;20;2735735;-56
2023/07/28 10:51:36;;;;;;;;;3.40;3.40;;;;;29.06;42.26;99139.53;6338891;20;2740928;-59
2023/07/28 10:54:06;;;;;;;;;6.00;3.00;;;;;29.08;41.81;99143.75;6301843;20;2756577;-56
2023/07/28 10:56:35;;;;;;;;;2.80;2.80;;;;;28.88;41.84;99137.53;6306097;20;2739869;-57
2023/07/28 10:59:06;;;;;;;;;5.40;4.00;;;;;29.32;42.21;99143.94;6303268;20;2746164;-59
2023/07/28 11:01:39;;;;;;;;;3.33;3.33;;;;;28.77;42.37;99135.53;6281288;20;2754551;-59
2023/07/28 11:04:19;;;;;;;;;3.80;3.00;;;;;28.80;42.39;99133.16;6334928;20;2756649;-59
2023/07/28 11:06:49;;;;;;;;;1.67;1.67;;;;;28.97;40.78;99141.72;6280881;20;2748196;-58
2023/07/28 11:09:23;;;;;;;;;2.40;2.40;;;;;28.97;41.78;99138.97;6336327;20;2729455;-57
2023/07/28 11:11:52;;;;;;;;;3.33;3.33;;;;;28.65;42.13;99139.03;6281952;20;2745215;-59
2023/07/28 11:14:21;;;;;;;;;3.00;2.60;;;;;29.19;42.02;99133.03;6333884;20;2754535;-61
2023/07/28 11:16:51;;;;;;;;;4.40;4.40;;;;;29.22;41.34;99146.38;6299956;20;2748294;-59
2023/07/28 11:19:24;;;;;;;;;4.00;4.00;;;;;29.42;41.12;99147.03;6279585;20;2748209;-59
2023/07/28 11:21:55;;;;;;;;;3.00;3.00;;;;;29.07;41.03;99139.31;6336054;20;2752464;-58
2023/07/28 11:24:23;;;;;;;;;3.33;3.33;;;;;29.37;42.08;99141.34;6281298;20;2732608;-59
2023/07/28 11:26:52;;;;;;;;;3.67;3.67;;;;;29.17;42.01;99132.41;6314037;20;2745135;-59